SARF/FMA METAR and TAF weather

Enter ICAO airport designator
Station Type Date Time Source
SARF METAR 2020/01/23 06:00 UTC NOAA

SARF 230600Z 14010KT 9999 OVC007 22/22 Q1007


Station Type Date Time Source
SARF Decoded METAR 2020/01/23 06:00 UTC NOAA

Formosa Aerodrome, Argentina (SARF) 26-12S 058-14W 60M
Jan 23, 2020 - 01:00 AM EST / 2020.01.23 0600 UTC
Wind: from the SE (140 degrees) at 12 MPH (10 KT):0
Visibility: greater than 7 mile(s):0
Sky conditions: overcast
Temperature: 71 F (22 C)
Dew Point: 71 F (22 C)
Relative Humidity: 100%
Pressure (altimeter): 29.74 in. Hg (1007 hPa)
ob: SARF 230600Z 14010KT 9999 OVC007 22/22 Q1007
cycle: 6

Station Type Date Time Source
SARF TAF 2020/01/23 06:51 UTC NOAA

TAF SARF 230500Z 2306/2406 18010KT 9999 OVC007 TX30/2319Z TN21/2309Z
BECMG 2312/2314 BKN020 SCT100
BECMG 2317/2319 CAVOK

Example: see airport list